sensor_id;sensor_type;location;lat;lon;timestamp;pressure;altitude;pressure_sealevel;temperature;humidity
55604;BME280;41468;48.838;9.330;2023-03-01T00:01:37;99104.06;;;1.25;64.34
55604;BME280;41468;48.838;9.330;2023-03-01T00:04:04;99109.56;;;1.39;64.30
55604;BME280;41468;48.838;9.330;2023-03-01T00:06:30;99104.63;;;1.22;64.73
55604;BME280;41468;48.838;9.330;2023-03-01T00:08:57;99104.00;;;1.30;64.34
55604;BME280;41468;48.838;9.330;2023-03-01T00:11:26;99097.41;;;1.42;64.11
55604;BME280;41468;48.838;9.330;2023-03-01T00:13:56;99101.22;;;1.41;63.61
55604;BME280;41468;48.838;9.330;2023-03-01T00:16:29;99102.22;;;1.45;64.14
55604;BME280;41468;48.838;9.330;2023-03-01T00:18:57;99100.53;;;1.30;64.56
55604;BME280;41468;48.838;9.330;2023-03-01T00:21:24;99101.00;;;1.37;64.54
55604;BME280;41468;48.838;9.330;2023-03-01T00:23:56;99105.75;;;1.21;64.82
55604;BME280;41468;48.838;9.330;2023-03-01T00:26:28;99113.44;;;1.04;66.38
55604;BME280;41468;48.838;9.330;2023-03-01T00:28:57;99098.50;;;0.93;66.33
55604;BME280;41468;48.838;9.330;2023-03-01T00:31:26;99109.66;;;0.81;67.14
55604;BME280;41468;48.838;9.330;2023-03-01T00:33:56;99102.78;;;0.94;67.04
55604;BME280;41468;48.838;9.330;2023-03-01T00:36:25;99113.50;;;0.99;66.56
55604;BME280;41468;48.838;9.330;2023-03-01T00:38:52;99103.34;;;0.91;66.83
55604;BME280;41468;48.838;9.330;2023-03-01T00:41:20;99111.56;;;0.75;67.82
55604;BME280;41468;48.838;9.330;2023-03-01T00:43:46;99097.63;;;0.73;67.61
55604;BME280;41468;48.838;9.330;2023-03-01T00:46:19;99097.56;;;0.78;67.19
55604;BME280;41468;48.838;9.330;2023-03-01T00:48:46;99095.38;;;0.80;66.99
55604;BME280;41468;48.838;9.330;2023-03-01T00:51:27;99089.03;;;0.71;67.88
55604;BME280;41468;48.838;9.330;2023-03-01T00:53:55;99098.91;;;0.81;67.10
55604;BME280;41468;48.838;9.330;2023-03-01T00:56:23;99096.03;;;0.67;67.63
55604;BME280;41468;48.838;9.330;2023-03-01T00:58:50;99094.72;;;0.64;67.97
55604;BME280;41468;48.838;9.330;2023-03-01T01:01:19;99100.56;;;0.42;68.62
55604;BME280;41468;48.838;9.330;2023-03-01T01:03:49;99097.88;;;0.42;68.81
55604;BME280;41468;48.838;9.330;2023-03-01T01:06:30;99096.97;;;0.23;70.29
55604;BME280;41468;48.838;9.330;2023-03-01T01:08:58;99087.56;;;0.20;69.80
55604;BME280;41468;48.838;9.330;2023-03-01T01:11:27;99092.50;;;0.42;69.21
55604;BME280;41468;48.838;9.330;2023-03-01T01:13:54;99091.91;;;0.16;69.93
55604;BME280;41468;48.838;9.330;2023-03-01T01:16:22;99090.06;;;0.12;69.89
55604;BME280;41468;48.838;9.330;2023-03-01T01:18:50;99092.97;;;0.15;69.73
55604;BME280;41468;48.838;9.330;2023-03-01T01:21:18;99093.56;;;0.47;69.07
55604;BME280;41468;48.838;9.330;2023-03-01T01:23:54;99089.31;;;0.40;68.76
55604;BME280;41468;48.838;9.330;2023-03-01T01:26:26;99076.63;;;0.46;68.92
55604;BME280;41468;48.838;9.330;2023-03-01T01:28:53;99073.69;;;0.42;68.69
55604;BME280;41468;48.838;9.330;2023-03-01T01:31:20;99079.03;;;0.48;68.56
55604;BME280;41468;48.838;9.330;2023-03-01T01:33:50;99067.66;;;0.56;68.60
55604;BME280;41468;48.838;9.330;2023-03-01T01:36:17;99066.06;;;0.55;68.18
55604;BME280;41468;48.838;9.330;2023-03-01T01:38:44;99060.69;;;0.55;68.00
55604;BME280;41468;48.838;9.330;2023-03-01T01:41:12;99051.97;;;0.68;68.12
55604;BME280;41468;48.838;9.330;2023-03-01T01:43:45;99060.22;;;0.77;67.26
55604;BME280;41468;48.838;9.330;2023-03-01T01:46:25;99053.50;;;0.74;67.19
55604;BME280;41468;48.838;9.330;2023-03-01T01:51:45;99055.69;;;0.72;67.46
55604;BME280;41468;48.838;9.330;2023-03-01T01:57:22;99053.47;;;0.79;67.53
55604;BME280;41468;48.838;9.330;2023-03-01T01:59:53;99047.72;;;0.86;66.93
55604;BME280;41468;48.838;9.330;2023-03-01T02:02:21;99046.78;;;0.77;67.17
55604;BME280;41468;48.838;9.330;2023-03-01T02:05:06;99039.38;;;0.63;67.62
55604;BME280;41468;48.838;9.330;2023-03-01T02:07:38;99043.56;;;0.75;67.60
55604;BME280;41468;48.838;9.330;2023-03-01T02:10:06;99041.63;;;0.80;68.03
55604;BME280;41468;48.838;9.330;2023-03-01T02:12:33;99037.78;;;0.62;68.79
55604;BME280;41468;48.838;9.330;2023-03-01T02:15:09;99029.28;;;0.79;68.38
55604;BME280;41468;48.838;9.330;2023-03-01T02:17:37;99029.44;;;0.88;67.51
55604;BME280;41468;48.838;9.330;2023-03-01T02:22:44;99024.63;;;0.85;68.34
55604;BME280;41468;48.838;9.330;2023-03-01T02:30:43;99016.03;;;0.83;67.43
55604;BME280;41468;48.838;9.330;2023-03-01T02:33:37;99010.34;;;0.90;67.57
55604;BME280;41468;48.838;9.330;2023-03-01T02:36:14;99008.09;;;0.97;67.42
55604;BME280;41468;48.838;9.330;2023-03-01T02:38:42;99002.72;;;0.97;67.04
55604;BME280;41468;48.838;9.330;2023-03-01T02:41:13;98999.22;;;0.96;67.32
55604;BME280;41468;48.838;9.330;2023-03-01T02:43:41;99006.50;;;0.96;68.08
55604;BME280;41468;48.838;9.330;2023-03-01T02:46:14;99001.00;;;1.06;68.41
55604;BME280;41468;48.838;9.330;2023-03-01T02:48:48;98999.00;;;0.93;68.45
55604;BME280;41468;48.838;9.330;2023-03-01T02:51:18;98991.47;;;0.95;68.65
55604;BME280;41468;48.838;9.330;2023-03-01T02:54:15;98989.56;;;0.95;68.49
55604;BME280;41468;48.838;9.330;2023-03-01T02:56:45;98988.72;;;1.00;68.04
55604;BME280;41468;48.838;9.330;2023-03-01T02:59:18;98990.31;;;1.01;67.82
55604;BME280;41468;48.838;9.330;2023-03-01T03:01:46;98985.03;;;1.15;67.61
55604;BME280;41468;48.838;9.330;2023-03-01T03:04:15;98980.94;;;1.17;67.10
55604;BME280;41468;48.838;9.330;2023-03-01T03:06:49;98991.78;;;1.12;67.54
55604;BME280;41468;48.838;9.330;2023-03-01T03:09:16;98985.09;;;1.09;67.67
55604;BME280;41468;48.838;9.330;2023-03-01T03:11:43;98987.44;;;1.16;67.14
55604;BME280;41468;48.838;9.330;2023-03-01T03:14:12;98973.59;;;1.04;67.98
55604;BME280;41468;48.838;9.330;2023-03-01T03:16:49;98977.59;;;1.06;68.34
55604;BME280;41468;48.838;9.330;2023-03-01T03:19:17;98970.50;;;1.16;67.62
55604;BME280;41468;48.838;9.330;2023-03-01T03:21:45;98965.53;;;1.04;68.04
55604;BME280;41468;48.838;9.330;2023-03-01T03:24:12;98968.94;;;1.09;67.57
55604;BME280;41468;48.838;9.330;2023-03-01T03:26:38;98972.72;;;1.08;67.69
55604;BME280;41468;48.838;9.330;2023-03-01T03:29:10;98970.78;;;1.14;67.74
55604;BME280;41468;48.838;9.330;2023-03-01T03:31:36;98964.63;;;1.32;67.07
55604;BME280;41468;48.838;9.330;2023-03-01T03:34:03;98968.66;;;1.11;67.52
55604;BME280;41468;48.838;9.330;2023-03-01T03:36:29;98968.53;;;1.21;67.63
55604;BME280;41468;48.838;9.330;2023-03-01T03:38:56;98966.78;;;1.30;67.30
55604;BME280;41468;48.838;9.330;2023-03-01T03:41:23;98970.66;;;1.24;66.82
55604;BME280;41468;48.838;9.330;2023-03-01T03:43:50;98973.47;;;1.14;67.76
55604;BME280;41468;48.838;9.330;2023-03-01T03:46:16;98962.34;;;1.21;68.05
55604;BME280;41468;48.838;9.330;2023-03-01T03:48:44;98957.06;;;1.35;66.50
55604;BME280;41468;48.838;9.330;2023-03-01T03:51:14;98957.06;;;1.35;66.23
55604;BME280;41468;48.838;9.330;2023-03-01T03:53:41;98955.03;;;1.26;66.37
55604;BME280;41468;48.838;9.330;2023-03-01T03:56:08;98949.84;;;1.30;67.03
55604;BME280;41468;48.838;9.330;2023-03-01T03:58:35;98958.19;;;1.28;67.68
55604;BME280;41468;48.838;9.330;2023-03-01T04:01:02;98950.13;;;1.28;67.67
55604;BME280;41468;48.838;9.330;2023-03-01T04:03:30;98941.97;;;1.33;67.19
55604;BME280;41468;48.838;9.330;2023-03-01T04:05:59;98943.81;;;1.19;67.74
55604;BME280;41468;48.838;9.330;2023-03-01T04:08:27;98942.56;;;1.30;67.22
55604;BME280;41468;48.838;9.330;2023-03-01T04:11:01;98940.25;;;1.43;67.10
55604;BME280;41468;48.838;9.330;2023-03-01T04:13:49;98931.94;;;1.39;66.75
55604;BME280;41468;48.838;9.330;2023-03-01T04:16:16;98930.50;;;1.28;67.52
55604;BME280;41468;48.838;9.330;2023-03-01T04:18:44;98930.50;;;1.28;67.52
55604;BME280;41468;48.838;9.330;2023-03-01T04:21:11;98934.63;;;1.20;68.17
55604;BME280;41468;48.838;9.330;2023-03-01T04:23:38;98940.59;;;1.36;67.81
55604;BME280;41468;48.838;9.330;2023-03-01T04:26:04;98930.28;;;1.24;67.90
55604;BME280;41468;48.838;9.330;2023-03-01T04:28:39;98927.53;;;1.29;67.87
55604;BME280;41468;48.838;9.330;2023-03-01T04:31:14;98928.59;;;1.28;67.88
55604;BME280;41468;48.838;9.330;2023-03-01T04:33:48;98936.75;;;1.42;67.48
55604;BME280;41468;48.838;9.330;2023-03-01T04:36:16;98931.38;;;1.23;68.42
55604;BME280;41468;48.838;9.330;2023-03-01T04:38:43;98932.09;;;1.29;67.56
55604;BME280;41468;48.838;9.330;2023-03-01T04:41:18;98929.63;;;1.51;67.22
55604;BME280;41468;48.838;9.330;2023-03-01T04:43:44;98937.63;;;1.57;66.59
55604;BME280;41468;48.838;9.330;2023-03-01T04:46:14;98932.97;;;1.62;66.24
55604;BME280;41468;48.838;9.330;2023-03-01T04:48:42;98937.38;;;1.53;66.42
55604;BME280;41468;48.838;9.330;2023-03-01T04:51:10;98927.34;;;1.40;66.81
55604;BME280;41468;48.838;9.330;2023-03-01T04:53:40;98935.72;;;1.57;66.22
55604;BME280;41468;48.838;9.330;2023-03-01T04:56:08;98943.94;;;1.47;66.69
55604;BME280;41468;48.838;9.330;2023-03-01T04:58:34;98930.94;;;1.54;66.32
55604;BME280;41468;48.838;9.330;2023-03-01T05:01:17;98935.94;;;1.61;66.30
55604;BME280;41468;48.838;9.330;2023-03-01T05:03:50;98932.97;;;1.62;66.86
55604;BME280;41468;48.838;9.330;2023-03-01T05:06:18;98938.41;;;1.57;66.39
55604;BME280;41468;48.838;9.330;2023-03-01T05:08:45;98937.63;;;1.57;66.38
55604;BME280;41468;48.838;9.330;2023-03-01T05:11:16;98936.91;;;1.51;66.94
55604;BME280;41468;48.838;9.330;2023-03-01T05:13:43;98934.28;;;1.46;67.61
55604;BME280;41468;48.838;9.330;2023-03-01T05:16:10;98939.66;;;1.46;67.27
55604;BME280;41468;48.838;9.330;2023-03-01T05:18:39;98928.31;;;1.49;67.62
55604;BME280;41468;48.838;9.330;2023-03-01T05:21:10;98926.81;;;1.43;67.96
55604;BME280;41468;48.838;9.330;2023-03-01T05:23:38;98922.16;;;1.29;68.71
55604;BME280;41468;48.838;9.330;2023-03-01T05:26:06;98921.63;;;1.27;69.13
55604;BME280;41468;48.838;9.330;2023-03-01T05:28:47;98925.78;;;1.39;68.84
55604;BME280;41468;48.838;9.330;2023-03-01T05:31:14;98922.41;;;1.47;68.07
55604;BME280;41468;48.838;9.330;2023-03-01T05:33:41;98921.91;;;1.26;68.59
55604;BME280;41468;48.838;9.330;2023-03-01T05:36:08;98922.88;;;1.35;68.48
55604;BME280;41468;48.838;9.330;2023-03-01T05:38:36;98935.75;;;1.38;68.38
55604;BME280;41468;48.838;9.330;2023-03-01T05:41:02;98931.28;;;1.28;68.25
55604;BME280;41468;48.838;9.330;2023-03-01T05:43:32;98921.56;;;1.32;67.90
55604;BME280;41468;48.838;9.330;2023-03-01T05:46:00;98932.53;;;1.36;67.83
55604;BME280;41468;48.838;9.330;2023-03-01T05:48:27;98925.31;;;1.31;67.87
55604;BME280;41468;48.838;9.330;2023-03-01T05:50:53;98929.91;;;1.31;67.88
55604;BME280;41468;48.838;9.330;2023-03-01T05:53:20;98925.97;;;1.23;68.12
55604;BME280;41468;48.838;9.330;2023-03-01T05:55:47;98920.97;;;1.36;67.38
55604;BME280;41468;48.838;9.330;2023-03-01T05:58:17;98919.38;;;1.35;68.25
55604;BME280;41468;48.838;9.330;2023-03-01T06:00:45;98921.19;;;1.20;69.35
55604;BME280;41468;48.838;9.330;2023-03-01T06:03:13;98909.28;;;1.26;69.37
55604;BME280;41468;48.838;9.330;2023-03-01T06:05:41;98907.09;;;1.28;69.00
55604;BME280;41468;48.838;9.330;2023-03-01T06:08:09;98909.63;;;1.20;69.38
55604;BME280;41468;48.838;9.330;2023-03-01T06:10:37;98911.88;;;1.13;69.39
55604;BME280;41468;48.838;9.330;2023-03-01T06:13:03;98904.84;;;1.17;69.83
55604;BME280;41468;48.838;9.330;2023-03-01T06:15:35;98916.97;;;1.14;69.86
55604;BME280;41468;48.838;9.330;2023-03-01T06:18:01;98912.31;;;1.20;70.16
55604;BME280;41468;48.838;9.330;2023-03-01T06:20:28;98911.66;;;1.47;73.45
55604;BME280;41468;48.838;9.330;2023-03-01T06:22:55;98909.34;;;1.21;70.67
55604;BME280;41468;48.838;9.330;2023-03-01T06:25:24;98912.69;;;1.13;70.83
55604;BME280;41468;48.838;9.330;2023-03-01T06:27:51;98922.44;;;1.09;70.88
55604;BME280;41468;48.838;9.330;2023-03-01T06:30:22;98913.50;;;1.14;70.61
55604;BME280;41468;48.838;9.330;2023-03-01T06:32:49;98920.31;;;1.25;69.65
55604;BME280;41468;48.838;9.330;2023-03-01T06:35:17;98915.59;;;1.17;70.01
55604;BME280;41468;48.838;9.330;2023-03-01T06:37:46;98914.34;;;1.28;69.53
55604;BME280;41468;48.838;9.330;2023-03-01T06:40:13;98912.53;;;1.23;69.20
55604;BME280;41468;48.838;9.330;2023-03-01T06:42:43;98921.97;;;1.21;69.51
55604;BME280;41468;48.838;9.330;2023-03-01T06:45:10;98915.88;;;1.15;70.03
55604;BME280;41468;48.838;9.330;2023-03-01T06:47:36;98925.38;;;1.07;69.99
55604;BME280;41468;48.838;9.330;2023-03-01T06:50:03;98923.47;;;1.13;69.75
55604;BME280;41468;48.838;9.330;2023-03-01T06:52:30;98911.38;;;1.10;70.06
55604;BME280;41468;48.838;9.330;2023-03-01T06:54:57;98918.22;;;1.03;69.76
55604;BME280;41468;48.838;9.330;2023-03-01T06:57:24;98921.56;;;0.95;70.27
55604;BME280;41468;48.838;9.330;2023-03-01T06:59:50;98915.66;;;1.12;69.52
55604;BME280;41468;48.838;9.330;2023-03-01T07:02:17;98921.19;;;1.20;72.93
55604;BME280;41468;48.838;9.330;2023-03-01T07:04:44;98917.19;;;0.99;70.03
55604;BME280;41468;48.838;9.330;2023-03-01T07:07:10;98912.47;;;1.09;69.55
55604;BME280;41468;48.838;9.330;2023-03-01T07:09:37;98908.84;;;1.19;69.29
55604;BME280;41468;48.838;9.330;2023-03-01T07:12:04;98906.66;;;1.02;69.79
55604;BME280;41468;48.838;9.330;2023-03-01T07:14:31;98915.59;;;0.98;70.05
55604;BME280;41468;48.838;9.330;2023-03-01T07:16:57;98912.47;;;1.09;68.99
55604;BME280;41468;48.838;9.330;2023-03-01T07:19:24;98905.91;;;0.97;69.74
55604;BME280;41468;48.838;9.330;2023-03-01T07:21:50;98907.38;;;1.08;69.85
55604;BME280;41468;48.838;9.330;2023-03-01T07:24:17;98909.13;;;1.18;68.97
55604;BME280;41468;48.838;9.330;2023-03-01T07:26:44;98911.88;;;1.13;68.77
55604;BME280;41468;48.838;9.330;2023-03-01T07:29:11;98895.06;;;1.59;68.38
55604;BME280;41468;48.838;9.330;2023-03-01T07:31:42;98899.44;;;1.87;67.42
55604;BME280;41468;48.838;9.330;2023-03-01T07:34:08;98898.28;;;2.07;66.36
55604;BME280;41468;48.838;9.330;2023-03-01T07:36:41;98893.00;;;2.16;65.90
55604;BME280;41468;48.838;9.330;2023-03-01T07:39:10;98887.91;;;2.28;64.77
55604;BME280;41468;48.838;9.330;2023-03-01T07:41:37;98890.00;;;2.17;65.25
55604;BME280;41468;48.838;9.330;2023-03-01T07:44:04;98890.91;;;2.27;64.34
55604;BME280;41468;48.838;9.330;2023-03-01T07:46:31;98888.31;;;2.49;64.45
55604;BME280;41468;48.838;9.330;2023-03-01T07:48:58;98895.00;;;2.38;64.10
55604;BME280;41468;48.838;9.330;2023-03-01T07:51:25;98887.94;;;2.56;63.91
55604;BME280;41468;48.838;9.330;2023-03-01T07:53:51;98890.03;;;2.59;63.23
55604;BME280;41468;48.838;9.330;2023-03-01T07:56:18;98884.00;;;2.76;62.84
55604;BME280;41468;48.838;9.330;2023-03-01T07:58:45;98883.03;;;2.72;63.50
55604;BME280;41468;48.838;9.330;2023-03-01T08:01:17;98876.22;;;2.88;62.73
55604;BME280;41468;48.838;9.330;2023-03-01T08:03:45;98873.28;;;2.98;62.58
55604;BME280;41468;48.838;9.330;2023-03-01T08:06:13;98872.94;;;3.14;62.72
55604;BME280;41468;48.838;9.330;2023-03-01T08:08:41;98867.25;;;3.15;61.89
55604;BME280;41468;48.838;9.330;2023-03-01T08:11:10;98874.91;;;3.22;61.69
55604;BME280;41468;48.838;9.330;2023-03-01T08:13:37;98868.66;;;3.35;59.95
55604;BME280;41468;48.838;9.330;2023-03-01T08:16:07;98868.72;;;3.21;60.34
55604;BME280;41468;48.838;9.330;2023-03-01T08:18:34;98869.50;;;3.22;60.64
55604;BME280;41468;48.838;9.330;2023-03-01T08:21:05;98866.81;;;3.22;61.02
55604;BME280;41468;48.838;9.330;2023-03-01T08:23:33;98874.75;;;3.41;60.71
55604;BME280;41468;48.838;9.330;2023-03-01T08:26:14;98873.03;;;3.45;60.83
55604;BME280;41468;48.838;9.330;2023-03-01T08:28:41;98859.72;;;3.48;60.35
55604;BME280;41468;48.838;9.330;2023-03-01T08:31:15;98863.97;;;3.63;59.32
55604;BME280;41468;48.838;9.330;2023-03-01T08:33:42;98868.78;;;3.75;59.13
55604;BME280;41468;48.838;9.330;2023-03-01T08:36:09;98857.97;;;3.75;59.32
55604;BME280;41468;48.838;9.330;2023-03-01T08:38:35;98863.00;;;3.90;59.66
55604;BME280;41468;48.838;9.330;2023-03-01T08:41:03;98870.09;;;4.09;58.21
55604;BME280;41468;48.838;9.330;2023-03-01T08:43:30;98863.84;;;3.99;58.58
55604;BME280;41468;48.838;9.330;2023-03-01T08:45:56;98855.75;;;4.08;58.63
55604;BME280;41468;48.838;9.330;2023-03-01T08:48:24;98858.38;;;4.22;57.12
55604;BME280;41468;48.838;9.330;2023-03-01T08:50:51;98853.69;;;4.45;57.18
55604;BME280;41468;48.838;9.330;2023-03-01T08:53:17;98851.03;;;4.62;56.86
55604;BME280;41468;48.838;9.330;2023-03-01T08:55:44;98850.75;;;4.81;56.34
55604;BME280;41468;48.838;9.330;2023-03-01T08:58:11;98845.03;;;4.92;55.25
55604;BME280;41468;48.838;9.330;2023-03-01T09:00:38;98844.84;;;4.79;54.95
55604;BME280;41468;48.838;9.330;2023-03-01T09:03:04;98837.22;;;4.99;53.98
55604;BME280;41468;48.838;9.330;2023-03-01T09:05:32;98836.13;;;5.17;54.23
55604;BME280;41468;48.838;9.330;2023-03-01T09:07:59;98833.41;;;5.43;53.35
55604;BME280;41468;48.838;9.330;2023-03-01T09:10:25;98836.22;;;5.73;53.08
55604;BME280;41468;48.838;9.330;2023-03-01T09:12:52;98832.53;;;5.78;52.93
55604;BME280;41468;48.838;9.330;2023-03-01T09:15:19;98832.09;;;5.75;52.28
55604;BME280;41468;48.838;9.330;2023-03-01T09:17:45;98814.19;;;5.92;51.74
55604;BME280;41468;48.838;9.330;2023-03-01T09:20:13;98807.84;;;5.79;51.65
55604;BME280;41468;48.838;9.330;2023-03-01T09:22:40;98807.47;;;5.98;51.28
55604;BME280;41468;48.838;9.330;2023-03-01T09:25:06;98803.72;;;6.20;51.39
55604;BME280;41468;48.838;9.330;2023-03-01T09:27:33;98801.16;;;6.24;51.33
55604;BME280;41468;48.838;9.330;2023-03-01T09:30:00;98811.00;;;6.58;49.41
55604;BME280;41468;48.838;9.330;2023-03-01T09:32:27;98802.72;;;5.95;49.43
55604;BME280;41468;48.838;9.330;2023-03-01T09:34:56;98798.94;;;6.17;49.21
55604;BME280;41468;48.838;9.330;2023-03-01T09:37:37;98809.00;;;6.46;48.84
55604;BME280;41468;48.838;9.330;2023-03-01T09:40:05;98798.31;;;6.71;49.35
55604;BME280;41468;48.838;9.330;2023-03-01T09:42:34;98799.28;;;6.45;49.29
55604;BME280;41468;48.838;9.330;2023-03-01T09:45:07;98796.22;;;6.97;48.52
55604;BME280;41468;48.838;9.330;2023-03-01T09:47:37;98808.19;;;6.75;48.43
55604;BME280;41468;48.838;9.330;2023-03-01T09:50:10;98809.75;;;6.55;48.02
55604;BME280;41468;48.838;9.330;2023-03-01T09:52:43;98798.84;;;6.64;48.57
55604;BME280;41468;48.838;9.330;2023-03-01T09:55:15;98792.84;;;6.58;47.96
55604;BME280;41468;48.838;9.330;2023-03-01T09:57:55;98780.38;;;6.78;47.77
55604;BME280;41468;48.838;9.330;2023-03-01T10:00:30;98779.00;;;6.72;47.29
55604;BME280;41468;48.838;9.330;2023-03-01T10:03:17;98771.97;;;7.13;46.77
55604;BME280;41468;48.838;9.330;2023-03-01T10:06:06;98769.44;;;7.08;47.14
55604;BME280;41468;48.838;9.330;2023-03-01T10:08:56;98764.53;;;7.56;46.76
55604;BME280;41468;48.838;9.330;2023-03-01T10:11:27;98766.72;;;7.87;46.01
55604;BME280;41468;48.838;9.330;2023-03-01T10:13:56;98764.34;;;7.97;46.64
55604;BME280;41468;48.838;9.330;2023-03-01T10:16:41;98761.06;;;8.16;45.69
55604;BME280;41468;48.838;9.330;2023-03-01T10:19:17;98765.72;;;8.40;44.82
55604;BME280;41468;48.838;9.330;2023-03-01T10:21:49;98762.88;;;8.37;45.09
55604;BME280;41468;48.838;9.330;2023-03-01T10:24:18;98762.56;;;8.38;45.10
55604;BME280;41468;48.838;9.330;2023-03-01T10:29:20;98753.00;;;8.69;44.09
55604;BME280;41468;48.838;9.330;2023-03-01T10:31:51;98734.78;;;8.57;44.37
55604;BME280;41468;48.838;9.330;2023-03-01T10:34:28;98731.69;;;8.34;43.82
55604;BME280;41468;48.838;9.330;2023-03-01T10:36:58;98726.00;;;8.76;45.07
55604;BME280;41468;48.838;9.330;2023-03-01T10:39:27;98722.56;;;9.07;44.22
55604;BME280;41468;48.838;9.330;2023-03-01T10:41:59;98718.22;;;9.19;43.58
55604;BME280;41468;48.838;9.330;2023-03-01T10:44:47;98736.47;;;9.46;43.54
55604;BME280;41468;48.838;9.330;2023-03-01T10:47:21;98722.00;;;9.30;42.61
55604;BME280;41468;48.838;9.330;2023-03-01T10:49:58;98726.16;;;8.83;43.08
55604;BME280;41468;48.838;9.330;2023-03-01T10:52:28;98729.06;;;9.03;43.59
55604;BME280;41468;48.838;9.330;2023-03-01T10:55:23;98721.47;;;9.24;43.26
55604;BME280;41468;48.838;9.330;2023-03-01T10:57:47;98715.94;;;9.37;43.00
55604;BME280;41468;48.838;9.330;2023-03-01T11:00:21;98713.47;;;9.32;42.81
55604;BME280;41468;48.838;9.330;2023-03-01T11:03:11;98703.72;;;8.87;43.14
55604;BME280;41468;48.838;9.330;2023-03-01T11:05:51;98692.88;;;9.18;43.90
55604;BME280;41468;48.838;9.330;2023-03-01T11:08:49;98696.09;;;9.52;43.47
55604;BME280;41468;48.838;9.330;2023-03-01T11:11:18;98691.25;;;9.45;42.76
55604;BME280;41468;48.838;9.330;2023-03-01T11:14:01;98694.34;;;9.44;42.80
55604;BME280;41468;48.838;9.330;2023-03-01T11:16:43;98690.16;;;9.18;43.22
55604;BME280;41468;48.838;9.330;2023-03-01T11:21:42;98674.63;;;9.35;42.77
55604;BME280;41468;48.838;9.330;2023-03-01T11:24:13;98677.81;;;9.52;42.21
55604;BME280;41468;48.838;9.330;2023-03-01T11:26:45;98672.34;;;9.68;42.23
55604;BME280;41468;48.838;9.330;2023-03-01T11:29:37;98672.53;;;9.44;43.04
55604;BME280;41468;48.838;9.330;2023-03-01T11:32:14;98664.88;;;9.65;42.58
55604;BME280;41468;48.838;9.330;2023-03-01T11:34:51;98658.94;;;8.72;43.21
55604;BME280;41468;48.838;9.330;2023-03-01T11:40:23;98652.47;;;9.84;41.88
55604;BME280;41468;48.838;9.330;2023-03-01T11:45:47;98643.84;;;10.33;41.00
55604;BME280;41468;48.838;9.330;2023-03-01T11:48:44;98645.06;;;10.00;41.59
55604;BME280;41468;48.838;9.330;2023-03-01T11:51:25;98628.53;;;10.12;41.32
55604;BME280;41468;48.838;9.330;2023-03-01T11:56:58;98617.81;;;9.68;42.43
55604;BME280;41468;48.838;9.330;2023-03-01T12:02:51;98616.66;;;9.85;41.65
55604;BME280;41468;48.838;9.330;2023-03-01T12:05:46;98613.41;;;10.15;41.27
55604;BME280;41468;48.838;9.330;2023-03-01T12:08:35;98614.59;;;10.33;41.92
55604;BME280;41468;48.838;9.330;2023-03-01T12:13:39;98600.53;;;9.96;41.70
55604;BME280;41468;48.838;9.330;2023-03-01T12:16:22;98589.09;;;10.65;41.44
55604;BME280;41468;48.838;9.330;2023-03-01T12:22:04;98579.72;;;10.43;41.09
55604;BME280;41468;48.838;9.330;2023-03-01T12:27:35;98575.69;;;10.79;40.74
55604;BME280;41468;48.838;9.330;2023-03-01T12:36:19;98571.25;;;10.12;41.28
55604;BME280;41468;48.838;9.330;2023-03-01T12:39:09;98562.31;;;10.51;41.32
55604;BME280;41468;48.838;9.330;2023-03-01T12:42:07;98549.66;;;10.62;41.00
55604;BME280;41468;48.838;9.330;2023-03-01T12:53:03;98517.41;;;10.09;41.48
55604;BME280;41468;48.838;9.330;2023-03-01T12:55:33;98516.94;;;10.66;40.74
55604;BME280;41468;48.838;9.330;2023-03-01T13:04:08;98503.47;;;10.34;40.80
55604;BME280;41468;48.838;9.330;2023-03-01T13:07:05;98498.72;;;10.50;41.68
55604;BME280;41468;48.838;9.330;2023-03-01T13:12:51;98504.59;;;11.21;40.82
55604;BME280;41468;48.838;9.330;2023-03-01T13:20:45;98495.03;;;10.62;42.43
55604;BME280;41468;48.838;9.330;2023-03-01T13:29:01;98490.66;;;10.34;42.27
55604;BME280;41468;48.838;9.330;2023-03-01T13:33:56;98500.38;;;10.78;41.64
55604;BME280;41468;48.838;9.330;2023-03-01T13:38:59;98491.00;;;10.13;42.89
55604;BME280;41468;48.838;9.330;2023-03-01T13:41:55;98491.72;;;10.10;43.83
55604;BME280;41468;48.838;9.330;2023-03-01T13:44:38;98494.06;;;9.92;43.67
55604;BME280;41468;48.838;9.330;2023-03-01T13:49:46;98481.66;;;9.76;45.16
55604;BME280;41468;48.838;9.330;2023-03-01T13:54:55;98488.47;;;9.85;45.23
55604;BME280;41468;48.838;9.330;2023-03-01T13:57:26;98482.22;;;9.85;44.92
55604;BME280;41468;48.838;9.330;2023-03-01T13:59:55;98473.38;;;9.72;44.61
55604;BME280;41468;48.838;9.330;2023-03-01T14:02:21;98474.41;;;10.03;44.32
55604;BME280;41468;48.838;9.330;2023-03-01T14:04:59;98473.41;;;9.91;45.15
55604;BME280;41468;48.838;9.330;2023-03-01T14:07:27;98472.66;;;9.56;45.36
55604;BME280;41468;48.838;9.330;2023-03-01T14:10:00;98468.88;;;9.60;45.55
55604;BME280;41468;48.838;9.330;2023-03-01T14:12:52;98475.81;;;9.58;45.13
55604;BME280;41468;48.838;9.330;2023-03-01T14:15:36;98484.03;;;9.42;44.68
55604;BME280;41468;48.838;9.330;2023-03-01T14:18:29;98479.03;;;9.44;44.88
55604;BME280;41468;48.838;9.330;2023-03-01T14:20:59;98478.75;;;9.49;44.69
55604;BME280;41468;48.838;9.330;2023-03-01T14:23:26;98477.31;;;9.20;44.33
55604;BME280;41468;48.838;9.330;2023-03-01T14:25:54;98489.06;;;9.24;45.37
55604;BME280;41468;48.838;9.330;2023-03-01T14:28:24;98489.78;;;9.05;44.91
55604;BME280;41468;48.838;9.330;2023-03-01T14:30:59;98497.56;;;9.03;45.18
55604;BME280;41468;48.838;9.330;2023-03-01T14:33:34;98487.59;;;9.11;45.26
55604;BME280;41468;48.838;9.330;2023-03-01T14:36:12;98487.78;;;8.86;45.68
55604;BME280;41468;48.838;9.330;2023-03-01T14:41:10;98495.88;;;9.14;46.12
55604;BME280;41468;48.838;9.330;2023-03-01T14:43:41;98491.97;;;9.15;46.16
55604;BME280;41468;48.838;9.330;2023-03-01T14:46:39;98500.34;;;9.06;46.28
55604;BME280;41468;48.838;9.330;2023-03-01T14:49:16;98511.16;;;9.03;46.67
55604;BME280;41468;48.838;9.330;2023-03-01T14:52:00;98500.88;;;9.12;45.61
55604;BME280;41468;48.838;9.330;2023-03-01T14:54:46;98499.38;;;8.99;47.17
55604;BME280;41468;48.838;9.330;2023-03-01T14:57:19;98508.00;;;9.01;46.99
55604;BME280;41468;48.838;9.330;2023-03-01T14:59:49;98502.63;;;8.89;46.32